Darstellungsparameter: Aktuell verwendete Einstellungen:
Skalierung der Graphiken ... ?
xyx+y,   Skalierungsfaktor:      Skalierung: Modus: x, Faktor: 1
Darstellungszeitraum ... ?
Vom - - bis: - -   Zeitraum: 17.05.2020 - 17.05.2020
Min/Max/Avg-Anzeige ... ?
Zeige MMA aktuell
Zeige MMA Monat
Zeige MMA alles
Zeige --A aktuell
Zeige --A Monat
Zeige --A alles
Keine MMA-Anzeige
MMA:
Keine MMA-Graphiken
MMA-Basis: 17.05.2020 - 17.05.2020
Quicknavigation für Darstellung... ?
Tage:      1T, 2T, 3T, 5T -1T -2T -3T -5T +1T +2T +3T +5T
Wochen: 1W, 2W, 3W -1W -2W -3W +1W +2W +3W
Monate: 1M, 3M, 6M -1M -3M -6M +1M +3M +6M
Jahre:    1J, 3J, 5J, 10J -1J -3J -5J -10J +1J +3J +5J +10J
Nutze für die Darstellung ... ?
Originaldaten oder Mittelwerte auf ...
Stundenbasis Tagesbasis Wochenbasis
Monatsbasis Jahresbasis      Datenbasis: Original-Daten
Darstellen als:
Statistik (Auto) Statistik J:M      Darstellung:
Zur Graphik,    zurück zur Übersicht aller Sensoren.
 
Tabellarische Datenbersicht: ?
 
Sensor: Nr:Datum:Temp:Feuchte:
Aussen-T/F 1 17-05-2020 00:04:17 11.6 C 28 %
2 17-05-2020 00:14:17 10.7 C 30 %
3 17-05-2020 00:24:17 10.9 C 30 %
4 17-05-2020 00:34:18 10.7 C 30 %
5 17-05-2020 00:44:18 10 C 31 %
6 17-05-2020 00:54:17 9.8 C 32 %
7 17-05-2020 01:04:17 9.9 C 32 %
8 17-05-2020 01:14:17 9.5 C 33 %
9 17-05-2020 01:24:17 9.4 C 33 %
10 17-05-2020 01:34:18 9.3 C 33 %
11 17-05-2020 01:44:18 9 C 33 %
12 17-05-2020 01:54:17 8.8 C 35 %
13 17-05-2020 02:04:17 9 C 33 %
14 17-05-2020 02:14:17 9.2 C 33 %
15 17-05-2020 02:24:17 9.1 C 33 %
16 17-05-2020 02:34:18 9 C 34 %
17 17-05-2020 02:44:18 8.6 C 35 %
18 17-05-2020 02:54:17 8.5 C 35 %
19 17-05-2020 03:04:17 8.2 C 36 %
20 17-05-2020 03:14:17 8.5 C 36 %
21 17-05-2020 03:24:17 8.3 C 36 %
22 17-05-2020 03:34:17 8.3 C 36 %
23 17-05-2020 03:44:18 8.5 C 36 %
24 17-05-2020 03:54:17 8.2 C 36 %
25 17-05-2020 04:04:17 8.2 C 36 %
Sensor: Nr:Datum:Temp:Feuchte:
Aussen-T/F 26 17-05-2020 04:14:17 7.7 C 37 %
27 17-05-2020 04:24:17 7.8 C 38 %
28 17-05-2020 04:34:18 7.4 C 38 %
29 17-05-2020 04:44:18 7 C 39 %
30 17-05-2020 04:54:17 7.1 C 39 %
31 17-05-2020 05:04:17 6.8 C 40 %
32 17-05-2020 05:14:17 6.8 C 40 %
33 17-05-2020 05:24:17 6.8 C 40 %
34 17-05-2020 05:34:18 6.8 C 40 %
35 17-05-2020 05:44:18 6.4 C 40 %
36 17-05-2020 05:54:18 6.5 C 40 %
37 17-05-2020 06:04:17 6.4 C 40 %
38 17-05-2020 06:14:17 6.5 C 40 %
39 17-05-2020 06:24:17 6.3 C 40 %
40 17-05-2020 06:34:17 6.5 C 40 %
41 17-05-2020 06:44:17 6.7 C 40 %
42 17-05-2020 06:54:17 6.6 C 40 %
43 17-05-2020 07:04:17 6.5 C 40 %
44 17-05-2020 07:14:17 6.5 C 40 %
45 17-05-2020 07:24:18 6.4 C 41 %
46 17-05-2020 07:34:17 6.6 C 41 %
47 17-05-2020 07:44:17 6.7 C 41 %
48 17-05-2020 07:54:17 6.8 C 40 %
49 17-05-2020 08:04:17 7.1 C 40 %
50 17-05-2020 08:14:17 7.1 C 40 %
Sensor: Nr:Datum:Temp:Feuchte:
Aussen-T/F 51 17-05-2020 08:24:17 7.3 C 40 %
52 17-05-2020 08:34:17 7.5 C 40 %
53 17-05-2020 08:44:17 8.1 C 38 %
54 17-05-2020 08:54:17 9 C 37 %
55 17-05-2020 09:04:17 9.8 C 35 %
56 17-05-2020 09:14:17 10.4 C 35 %
57 17-05-2020 09:24:17 11.2 C 32 %
58 17-05-2020 09:34:17 12.5 C 31 %
59 17-05-2020 09:44:17 12 C 30 %
60 17-05-2020 09:54:17 12.2 C 29 %
61 17-05-2020 10:04:17 12.4 C 28 %
62 17-05-2020 10:14:17 13 C 27 %
63 17-05-2020 10:24:17 13.7 C 25 %
64 17-05-2020 10:34:18 13.9 C 26 %
65 17-05-2020 10:44:18 14.8 C 25 %
66 17-05-2020 10:54:17 14 C 25 %
67 17-05-2020 11:04:18 14.3 C 25 %
68 17-05-2020 11:14:18 14.1 C 25 %
69 17-05-2020 11:24:17 14.2 C 25 %
70 17-05-2020 11:34:18 14.3 C 24 %
71 17-05-2020 11:44:18 14.3 C 25 %
72 17-05-2020 11:54:17 15 C 23 %
73 17-05-2020 12:04:18 14.7 C 23 %
74 17-05-2020 12:14:18 15.4 C 21 %
75 17-05-2020 12:24:17 15.4 C 20 %
Sensor: Nr:Datum:Temp:Feuchte:
Aussen-T/F 76 17-05-2020 12:34:17 15.1 C 22 %
77 17-05-2020 12:44:17 15.1 C 21 %
78 17-05-2020 12:54:17 14.8 C 22 %
79 17-05-2020 13:04:17 15.3 C 21 %
80 17-05-2020 13:14:17 15.8 C 21 %
81 17-05-2020 13:24:17 16 C 20 %
82 17-05-2020 13:34:18 16.3 C 20 %
83 17-05-2020 13:44:18 17.1 C 20 %
84 17-05-2020 13:54:17 20.1 C 20 %
85 17-05-2020 14:04:17 23.5 C 20 %
86 17-05-2020 14:14:17 23.5 C 20 %
87 17-05-2020 14:24:17 22.3 C 20 %
88 17-05-2020 14:34:17 26.4 C 20 %
89 17-05-2020 14:44:17 27.4 C 20 %
90 17-05-2020 14:54:17 27.8 C 20 %
91 17-05-2020 15:04:18 24.2 C 20 %
92 17-05-2020 15:14:18 24.3 C 20 %
93 17-05-2020 15:24:18 24.6 C 20 %
94 17-05-2020 15:34:18 25.9 C 20 %
95 17-05-2020 15:44:18 25.7 C 20 %
96 17-05-2020 15:54:17 24.2 C 20 %
97 17-05-2020 16:04:17 26.3 C 20 %
98 17-05-2020 16:14:17 24.6 C 20 %
99 17-05-2020 16:24:17 27.6 C 20 %
100 17-05-2020 16:34:17 24.8 C 20 %
Sensor: Nr:Datum:Temp:Feuchte:
Aussen-T/F 101 17-05-2020 16:44:17 28.3 C 20 %
102 17-05-2020 16:54:18 27.9 C 20 %
103 17-05-2020 17:04:18 27 C 20 %
104 17-05-2020 17:14:18 28.4 C 20 %
105 17-05-2020 17:24:18 27.3 C 20 %
106 17-05-2020 17:34:18 27.7 C 20 %
107 17-05-2020 17:44:18 25.2 C 20 %
108 17-05-2020 17:54:17 26.2 C 20 %
109 17-05-2020 18:04:17 26.9 C 20 %
110 17-05-2020 18:14:18 24.1 C 20 %
111 17-05-2020 18:24:17 21 C 20 %
112 17-05-2020 18:34:17 20.5 C 20 %
113 17-05-2020 18:44:17 19.9 C 20 %
114 17-05-2020 18:54:17 19.5 C 20 %
115 17-05-2020 19:04:18 19.5 C 20 %
116 17-05-2020 19:14:18 19.5 C 20 %
117 17-05-2020 19:24:17 19.1 C 20 %
118 17-05-2020 19:34:17 19.1 C 20 %
119 17-05-2020 19:44:17 18.7 C 20 %
120 17-05-2020 19:54:17 18.7 C 20 %
121 17-05-2020 20:04:18 18.6 C 20 %
122 17-05-2020 20:14:18 18.4 C 20 %
123 17-05-2020 20:24:17 18.1 C 20 %
124 17-05-2020 20:34:17 17.7 C 20 %
125 17-05-2020 20:44:17 17.2 C 20 %
Sensor: Nr:Datum:Temp:Feuchte:
Aussen-T/F 126 17-05-2020 20:54:17 15.5 C 20 %
127 17-05-2020 21:04:17 15.1 C 20 %
128 17-05-2020 21:14:17 14.8 C 20 %
129 17-05-2020 21:24:17 14.4 C 20 %
130 17-05-2020 21:34:18 14.1 C 20 %
131 17-05-2020 21:44:18 13.8 C 21 %
132 17-05-2020 21:54:17 13.6 C 21 %
133 17-05-2020 22:04:17 13.5 C 21 %
134 17-05-2020 22:14:17 13.3 C 21 %
135 17-05-2020 22:24:17 12.9 C 25 %
136 17-05-2020 22:34:17 12.3 C 26 %
137 17-05-2020 22:44:17 11.8 C 28 %
138 17-05-2020 22:54:18 11 C 30 %
139 17-05-2020 23:04:17 10.6 C 31 %
140 17-05-2020 23:14:17 10.1 C 32 %
141 17-05-2020 23:24:17 9.9 C 33 %
142 17-05-2020 23:34:17 9.8 C 33 %
143 17-05-2020 23:44:17 9.5 C 34 %
144 17-05-2020 23:54:17 9.1 C 35 %
Sensor: Nr:Datum:Temp:Feuchte:

Legende:
   Min
   Max


Maximal/Minimal-Werte vom 17.05.2020 - 17.05.2020

Sensor Min Max Avg
Temp
(Aussen-T/F)
6.3 °C
17-05-2020  06:24:17
28.4 °C
17-05-2020  17:14:18
14.26 °C
Feuchte
(Aussen-T/F)
20 %
17-05-2020  12:24:17
41 %
17-05-2020  07:24:18
28.06 %
Temp
(G-T/H)
°C
-- 
°C 0 °C
Feuchte
(G-T/H)
%
-- 
% 0 %

Die Daten stammen von einer Davis Vantage Pro 2 Wetter-Station und werden unter Linux mit der Software wview2wettercgi und aufbereitet. Alle Angaben erfolgen ohne Gewähr für ihre Vollständigkeit oder Richtigkeit.
Kontakt: Rainer Krienke krienke@uni-koblenz.de . Meine Webseiten an der Uni Koblenz oder privat.
Version: $Revision: 0.78 $